Time;durP1;ratioP1;P1;durP2;ratioP2;P2;SDS_P1;SDS_P2;PMS_P1;PMS_P2;Temp;Humidity;BMP_temperature;BMP_pressure;BME280_temperature;BME280_humidity;BME280_pressure;Samples;Min_cycle;Max_cycle;Signal;HPM_P1;HPM_P2
2022/04/19 00:00:36;;;;;;;16.58;7.75;;;16.60;55.60;;;;;;7390949;19;20039;-77
2022/04/19 00:03:06;;;;;;;14.82;6.97;;;16.70;55.60;;;;;;7369701;19;20019;-77
2022/04/19 00:05:36;;;;;;;18.38;7.90;;;16.70;55.60;;;;;;7369361;19;20022;-78
2022/04/19 00:08:09;;;;;;;13.63;6.70;;;16.70;55.40;;;;;;7371705;19;20015;-78
2022/04/19 00:10:38;;;;;;;15.40;6.72;;;16.70;55.50;;;;;;7372009;19;20015;-78
2022/04/19 00:13:09;;;;;;;15.40;6.63;;;16.70;55.50;;;;;;7369438;19;20692;-79
2022/04/19 00:15:39;;;;;;;16.05;8.02;;;16.70;55.30;;;;;;7389031;19;20054;-77
2022/04/19 00:18:09;;;;;;;13.05;7.03;;;16.70;55.30;;;;;;7371857;19;20019;-76
2022/04/19 00:20:38;;;;;;;12.48;6.45;;;16.70;55.10;;;;;;7370864;19;20011;-76
2022/04/19 00:23:12;;;;;;;16.25;6.82;;;16.60;55.20;;;;;;7371216;19;20089;-76
2022/04/19 00:25:42;;;;;;;16.60;6.53;;;16.60;55.20;;;;;;7371340;19;20014;-76
2022/04/19 00:28:11;;;;;;;17.23;6.70;;;16.60;55.10;;;;;;7369920;19;20721;-76
2022/04/19 00:30:40;;;;;;;15.60;7.45;;;16.60;55.10;;;;;;7390915;19;20109;-75
2022/04/19 00:33:10;;;;;;;15.02;7.13;;;16.60;55.00;;;;;;7367676;19;20056;-76
2022/04/19 00:35:39;;;;;;;10.65;5.97;;;16.60;54.80;;;;;;7370438;19;20090;-76
2022/04/19 00:38:11;;;;;;;12.55;6.10;;;16.50;54.70;;;;;;7371885;19;20093;-76
2022/04/19 00:40:40;;;;;;;14.13;6.70;;;16.40;54.70;;;;;;7370808;19;20014;-75
2022/04/19 00:43:09;;;;;;;12.23;5.88;;;16.30;54.60;;;;;;7369360;19;20090;-77
2022/04/19 00:45:38;;;;;;;11.25;5.60;;;16.30;54.70;;;;;;7398323;19;20031;-75
2022/04/19 00:48:07;;;;;;;15.63;6.15;;;16.20;54.70;;;;;;7375276;19;20023;-75
2022/04/19 00:50:36;;;;;;;12.68;5.38;;;16.20;54.60;;;;;;7373243;19;20023;-76
2022/04/19 00:53:05;;;;;;;12.52;5.60;;;16.20;55.20;;;;;;7374645;19;20022;-77
2022/04/19 00:55:38;;;;;;;12.20;5.85;;;16.00;54.50;;;;;;7377396;19;20014;-76
2022/04/19 00:58:07;;;;;;;9.05;5.30;;;16.00;54.70;;;;;;7375194;19;20010;-77
2022/04/19 01:00:36;;;;;;;11.40;5.50;;;15.90;54.60;;;;;;7397604;19;20482;-76
2022/04/19 01:03:05;;;;;;;11.65;5.97;;;15.80;54.70;;;;;;7374016;19;20106;-77
2022/04/19 01:05:33;;;;;;;12.82;5.13;;;15.80;54.70;;;;;;7376939;19;20077;-76
2022/04/19 01:08:02;;;;;;;18.45;5.40;;;15.80;54.70;;;;;;7377085;19;20443;-76
2022/04/19 01:10:32;;;;;;;10.13;5.00;;;15.80;54.60;;;;;;7374418;19;20045;-76
2022/04/19 01:15:48;;;;;;;9.07;4.82;;;15.80;54.70;;;;;;7378560;19;20025;-76
2022/04/19 01:18:20;;;;;;;10.10;4.38;;;15.80;54.40;;;;;;7396372;19;20035;-76
2022/04/19 01:20:49;;;;;;;7.28;4.45;;;15.90;54.30;;;;;;7373746;19;20018;-76
2022/04/19 01:23:22;;;;;;;9.65;5.00;;;15.90;54.20;;;;;;7376023;19;20019;-76
2022/04/19 01:25:52;;;;;;;8.45;4.80;;;15.90;54.10;;;;;;7375676;19;20587;-77
2022/04/19 01:28:21;;;;;;;15.80;5.22;;;15.90;54.10;;;;;;7374429;19;20017;-76
2022/04/19 01:30:52;;;;;;;9.25;5.15;;;15.90;54.20;;;;;;7372463;19;20035;-77
2022/04/19 01:33:21;;;;;;;11.43;5.00;;;15.90;54.20;;;;;;7398279;19;20018;-77
2022/04/19 01:35:50;;;;;;;7.25;4.53;;;15.80;54.30;;;;;;7375624;19;20049;-76
2022/04/19 01:38:21;;;;;;;10.23;4.78;;;15.70;54.30;;;;;;7375271;19;21130;-76
2022/04/19 01:40:50;;;;;;;9.75;4.75;;;15.70;54.30;;;;;;7374630;19;20027;-76
2022/04/19 01:43:19;;;;;;;9.88;4.72;;;15.70;54.50;;;;;;7376191;19;20011;-75
2022/04/19 01:45:48;;;;;;;10.68;4.38;;;15.70;54.40;;;;;;7373104;19;20035;-76
2022/04/19 01:48:17;;;;;;;10.13;4.78;;;15.70;54.40;;;;;;7395045;19;20053;-76
2022/04/19 01:50:46;;;;;;;14.13;4.30;;;15.70;54.30;;;;;;7375083;19;20027;-76
2022/04/19 01:53:16;;;;;;;9.02;4.28;;;15.70;54.00;;;;;;7374956;19;20022;-76
2022/04/19 01:55:47;;;;;;;12.13;4.90;;;15.70;53.80;;;;;;7373539;19;20010;-75
2022/04/19 01:58:19;;;;;;;10.00;4.50;;;15.70;53.80;;;;;;7374994;19;20304;-76
2022/04/19 02:00:48;;;;;;;11.10;5.07;;;15.70;53.80;;;;;;7372556;19;20035;-76
2022/04/19 02:03:17;;;;;;;10.15;4.63;;;15.70;53.80;;;;;;7394956;19;20031;-76
2022/04/19 02:05:46;;;;;;;9.07;4.18;;;15.60;53.60;;;;;;7374735;19;20022;-76
2022/04/19 02:08:15;;;;;;;9.90;4.25;;;15.50;53.60;;;;;;7373165;19;20018;-76
2022/04/19 02:10:43;;;;;;;6.72;4.05;;;15.50;53.70;;;;;;7375198;19;20014;-76
2022/04/19 02:13:16;;;;;;;8.27;3.92;;;15.40;53.70;;;;;;7373585;19;20015;-76
2022/04/19 02:15:46;;;;;;;11.35;4.18;;;15.40;53.70;;;;;;7376695;19;20024;-76
2022/04/19 02:18:15;;;;;;;10.07;4.75;;;15.30;53.90;;;;;;7397210;19;20014;-76
2022/04/19 02:20:45;;;;;;;10.05;4.03;;;15.20;53.70;;;;;;7375374;19;20015;-76
2022/04/19 02:23:14;;;;;;;7.70;3.95;;;15.20;53.90;;;;;;7369700;19;20019;-75
2022/04/19 02:25:42;;;;;;;9.13;3.97;;;15.20;54.00;;;;;;7374067;19;20389;-76
2022/04/19 02:28:14;;;;;;;11.85;4.50;;;15.20;54.10;;;;;;7373214;19;20010;-76
2022/04/19 02:30:43;;;;;;;8.80;4.63;;;15.10;54.20;;;;;;7395065;19;20506;-75
2022/04/19 02:33:12;;;;;;;7.43;3.90;;;15.10;54.30;;;;;;7395263;19;20019;-75
2022/04/19 02:35:41;;;;;;;7.50;3.97;;;15.10;54.40;;;;;;7373994;19;20014;-76
2022/04/19 02:38:10;;;;;;;9.40;4.40;;;15.20;54.20;;;;;;7373916;19;20018;-76
2022/04/19 02:40:38;;;;;;;16.80;4.43;;;15.20;54.10;;;;;;7374406;19;20497;-76
2022/04/19 02:43:08;;;;;;;8.07;4.25;;;15.20;54.50;;;;;;7372690;19;20014;-76
2022/04/19 02:45:39;;;;;;;11.23;3.95;;;15.30;53.60;;;;;;7395004;19;20078;-76
2022/04/19 02:48:11;;;;;;;6.18;3.42;;;15.30;53.50;;;;;;7373898;19;20123;-76
2022/04/19 02:50:48;;;;;;;7.80;3.40;;;15.10;53.10;;;;;;7373097;19;20109;-75
2022/04/19 02:53:17;;;;;;;6.38;3.80;;;15.00;53.10;;;;;;7374468;19;20007;-76
2022/04/19 02:55:46;;;;;;;11.05;3.55;;;15.00;53.20;;;;;;7372227;19;20024;-76
2022/04/19 02:58:14;;;;;;;7.68;4.03;;;15.00;53.30;;;;;;7373421;19;20006;-75
2022/04/19 03:00:46;;;;;;;8.20;4.03;;;14.90;53.30;;;;;;7389428;19;20222;-77
2022/04/19 03:03:15;;;;;;;9.40;3.70;;;14.90;53.40;;;;;;7393966;19;20027;-76
2022/04/19 03:05:44;;;;;;;9.23;3.63;;;14.90;53.30;;;;;;7371661;19;20070;-77
2022/04/19 03:08:12;;;;;;;8.93;3.60;;;14.90;53.00;;;;;;7371636;19;20039;-76
2022/04/19 03:10:41;;;;;;;11.23;3.28;;;14.90;53.00;;;;;;7372225;19;20074;-76
2022/04/19 03:13:10;;;;;;;12.13;3.50;;;14.90;52.60;;;;;;7371347;19;20011;-76
2022/04/19 03:15:39;;;;;;;9.68;3.70;;;14.80;52.90;;;;;;7393419;19;20097;-76
2022/04/19 03:18:10;;;;;;;9.07;3.13;;;14.70;52.90;;;;;;7372998;19;20078;-76
2022/04/19 03:20:39;;;;;;;10.70;3.22;;;14.70;53.00;;;;;;7370284;19;20018;-76
2022/04/19 03:28:30;;;;;;;7.75;3.25;;;14.60;53.00;;;;;;7372102;19;20093;-76
2022/04/19 03:30:58;;;;;;;10.52;3.33;;;14.70;52.90;;;;;;7372101;19;20082;-76
2022/04/19 03:33:30;;;;;;;8.13;3.28;;;14.60;53.00;;;;;;7392283;19;20018;-76
2022/04/19 03:35:59;;;;;;;6.20;2.67;;;14.50;53.00;;;;;;7370494;19;20049;-75
2022/04/19 03:38:27;;;;;;;9.93;2.58;;;14.40;53.30;;;;;;7367675;19;20034;-76
2022/04/19 03:40:56;;;;;;;8.90;3.17;;;14.50;53.50;;;;;;7371987;19;20019;-76
2022/04/19 03:43:25;;;;;;;10.60;3.42;;;14.50;53.50;;;;;;7370175;19;20117;-77
2022/04/19 03:45:54;;;;;;;7.63;3.30;;;14.50;53.50;;;;;;7372593;19;20027;-76
2022/04/19 03:48:22;;;;;;;7.60;2.95;;;14.50;53.40;;;;;;7392058;19;20025;-76
2022/04/19 03:50:54;;;;;;;9.95;2.95;;;14.50;53.40;;;;;;7372087;19;20018;-76
2022/04/19 03:53:23;;;;;;;9.90;3.53;;;14.50;53.40;;;;;;7371952;19;20014;-76
2022/04/19 03:55:52;;;;;;;18.13;3.70;;;14.40;53.70;;;;;;7368864;19;20049;-76
2022/04/19 03:58:21;;;;;;;13.73;3.30;;;14.40;53.80;;;;;;7371209;19;20118;-76
2022/04/19 04:00:49;;;;;;;18.63;3.00;;;14.40;53.80;;;;;;7369343;19;20086;-76
2022/04/19 04:03:18;;;;;;;11.52;3.25;;;14.40;54.10;;;;;;7392292;19;20090;-76
2022/04/19 04:05:47;;;;;;;11.10;3.40;;;14.40;54.00;;;;;;7372278;19;20014;-77
2022/04/19 04:08:18;;;;;;;14.77;3.50;;;14.40;54.00;;;;;;7372007;19;20010;-76
2022/04/19 04:10:47;;;;;;;10.35;3.00;;;14.50;54.00;;;;;;7370819;19;20059;-76
2022/04/19 04:13:16;;;;;;;11.35;3.08;;;14.50;53.90;;;;;;7368262;19;20090;-77
2022/04/19 04:15:45;;;;;;;16.33;3.90;;;14.50;53.90;;;;;;7369564;19;20025;-76
2022/04/19 04:18:13;;;;;;;10.20;3.15;;;14.40;54.10;;;;;;7393200;19;20018;-76
2022/04/19 04:20:42;;;;;;;14.35;3.85;;;14.40;54.20;;;;;;7375358;19;20015;-76
2022/04/19 04:23:11;;;;;;;10.45;3.45;;;14.40;54.30;;;;;;7377426;19;20082;-77
2022/04/19 04:25:42;;;;;;;5.95;3.05;;;14.40;54.50;;;;;;7378382;19;20023;-77
2022/04/19 04:28:11;;;;;;;11.55;3.25;;;14.40;54.40;;;;;;7379616;19;20514;-76
2022/04/19 04:30:40;;;;;;;12.20;3.45;;;14.40;54.40;;;;;;7400634;19;20034;-77
2022/04/19 04:33:09;;;;;;;9.80;2.88;;;14.40;54.50;;;;;;7374541;19;20022;-76
2022/04/19 04:35:38;;;;;;;14.25;3.50;;;14.20;55.20;;;;;;7375587;19;20086;-76
2022/04/19 04:38:07;;;;;;;11.15;3.47;;;14.20;54.90;;;;;;7378522;19;20017;-76
2022/04/19 04:40:35;;;;;;;9.40;3.15;;;14.30;54.80;;;;;;7375861;19;20518;-76
2022/04/19 04:43:07;;;;;;;11.45;3.22;;;14.30;54.90;;;;;;7374894;19;20076;-76
2022/04/19 04:45:35;;;;;;;;;;;14.40;54.90;;;;;;7402123;19;20018;-76
2022/04/19 04:50:45;;;;;;;9.75;3.45;;;14.50;54.70;;;;;;7377740;19;20012;-79
2022/04/19 04:53:14;;;;;;;7.97;2.92;;;14.40;54.90;;;;;;7374850;19;20022;-77
2022/04/19 04:55:43;;;;;;;15.18;3.55;;;14.40;55.00;;;;;;7371662;19;20010;-76
2022/04/19 04:58:15;;;;;;;13.90;3.30;;;14.40;54.90;;;;;;7375216;19;20010;-76
2022/04/19 05:00:43;;;;;;;12.02;2.95;;;14.40;54.80;;;;;;7390213;19;20019;-76
2022/04/19 05:03:12;;;;;;;14.27;3.63;;;14.40;55.20;;;;;;7397613;19;20018;-79
2022/04/19 05:05:41;;;;;;;9.90;3.05;;;14.40;55.40;;;;;;7377942;19;20010;-79
2022/04/19 05:08:12;;;;;;;9.60;3.70;;;14.40;55.40;;;;;;7376405;19;20403;-79
2022/04/19 05:10:41;;;;;;;15.77;4.38;;;14.40;55.70;;;;;;7377059;19;20014;-79
2022/04/19 05:13:10;;;;;;;16.42;4.75;;;14.20;57.00;;;;;;7374638;19;20130;-76
2022/04/19 05:15:41;;;;;;;11.68;3.83;;;14.20;56.10;;;;;;7398220;19;20082;-77
2022/04/19 05:18:11;;;;;;;26.45;3.70;;;14.10;56.80;;;;;;7377057;19;20014;-76
2022/04/19 05:20:40;;;;;;;14.40;3.75;;;14.20;56.50;;;;;;7377054;19;20101;-77
2022/04/19 05:23:09;;;;;;;16.70;3.95;;;14.10;56.70;;;;;;7382183;19;20014;-81
2022/04/19 05:25:38;;;;;;;17.90;4.05;;;14.20;57.20;;;;;;7377919;19;20007;-81
2022/04/19 05:28:07;;;;;;;11.95;3.42;;;14.20;56.80;;;;;;7377879;19;20014;-77
2022/04/19 05:30:36;;;;;;;18.73;3.80;;;14.30;56.90;;;;;;7395711;19;20041;-77
2022/04/19 05:33:09;;;;;;;20.33;8.38;;;14.30;57.50;;;;;;7375777;19;20613;-80
2022/04/19 05:35:38;;;;;;;19.90;7.40;;;14.30;56.90;;;;;;7389349;19;20014;-79
2022/04/19 05:38:07;;;;;;;11.73;5.22;;;14.40;56.90;;;;;;7382329;19;20033;-77
2022/04/19 05:40:36;;;;;;;17.42;6.78;;;14.50;56.80;;;;;;7377672;19;20649;-79
2022/04/19 05:43:05;;;;;;;22.58;8.60;;;14.50;56.80;;;;;;7375728;19;20012;-79
2022/04/19 05:45:33;;;;;;;12.82;4.30;;;14.60;56.90;;;;;;7402020;19;20058;-81
2022/04/19 05:48:05;;;;;;;23.20;5.32;;;14.70;56.80;;;;;;7378027;19;20348;-78
2022/04/19 05:50:36;;;;;;;14.13;4.03;;;14.70;56.60;;;;;;7373464;19;20040;-80
2022/04/19 05:53:05;;;;;;;;;;;14.50;57.00;;;;;;7373379;19;20015;-79
2022/04/19 05:55:34;;;;;;;20.02;5.15;;;14.30;57.60;;;;;;7373339;19;19914;-79
2022/04/19 05:58:03;;;;;;;19.08;4.32;;;14.30;57.50;;;;;;7370467;19;20020;-78
2022/04/19 06:00:32;;;;;;;19.65;4.45;;;14.30;57.90;;;;;;7396043;19;20035;-78
2022/04/19 06:05:46;;;;;;;18.55;4.57;;;14.30;58.20;;;;;;7374301;19;20016;-78
2022/04/19 06:08:15;;;;;;;17.45;3.83;;;14.30;58.00;;;;;;7374829;19;20043;-78
2022/04/19 06:10:45;;;;;;;14.73;3.55;;;14.50;58.00;;;;;;7370847;19;20010;-78
2022/04/19 06:13:14;;;;;;;13.85;4.30;;;14.50;57.80;;;;;;7374800;19;20033;-78
2022/04/19 06:15:45;;;;;;;10.75;3.80;;;14.70;57.80;;;;;;7391728;19;20770;-78
2022/04/19 06:18:14;;;;;;;19.23;4.10;;;14.50;57.90;;;;;;7373966;19;20078;-78
2022/04/19 06:20:45;;;;;;;21.50;4.97;;;14.50;58.30;;;;;;7373459;19;20033;-78
2022/04/19 06:23:14;;;;;;;21.65;4.35;;;14.30;59.20;;;;;;7375403;19;20029;-78
2022/04/19 06:25:43;;;;;;;19.40;4.40;;;14.30;58.60;;;;;;7372796;19;20014;-78
2022/04/19 06:28:12;;;;;;;16.52;3.85;;;14.40;58.60;;;;;;7373521;19;20025;-77
2022/04/19 06:30:40;;;;;;;17.92;4.47;;;14.50;58.40;;;;;;7397472;19;20023;-77
2022/04/19 06:33:09;;;;;;;18.88;5.03;;;14.50;58.40;;;;;;7371874;19;20025;-77
2022/04/19 06:35:38;;;;;;;18.05;4.65;;;14.50;58.70;;;;;;7374292;19;20074;-77
2022/04/19 06:38:09;;;;;;;19.45;4.38;;;14.50;58.40;;;;;;7374063;19;20179;-78
2022/04/19 06:40:38;;;;;;;16.13;4.38;;;14.60;58.20;;;;;;7370317;19;20097;-82
2022/04/19 06:43:07;;;;;;;18.83;3.88;;;14.70;58.00;;;;;;7368379;19;20097;-77
2022/04/19 06:45:36;;;;;;;14.65;5.07;;;14.80;58.10;;;;;;7391946;19;20021;-79
2022/04/19 06:48:06;;;;;;;20.75;4.72;;;14.70;58.10;;;;;;7373203;19;20019;-78
2022/04/19 06:50:35;;;;;;;14.00;4.50;;;14.80;58.20;;;;;;7370154;19;20448;-80
2022/04/19 06:53:04;;;;;;;18.25;4.43;;;14.80;58.00;;;;;;7373255;19;20502;-84
2022/04/19 06:55:35;;;;;;;18.73;4.93;;;14.80;58.30;;;;;;7376077;19;20020;-80
2022/04/19 06:58:04;;;;;;;16.23;4.90;;;14.70;57.80;;;;;;7372896;19;20454;-80
2022/04/19 07:00:32;;;;;;;19.85;4.97;;;14.80;58.00;;;;;;7392637;19;20059;-80
2022/04/19 07:03:01;;;;;;;14.20;3.88;;;14.50;58.00;;;;;;7372581;19;20477;-80
2022/04/19 07:05:37;;;;;;;17.48;5.47;;;14.60;58.20;;;;;;7370315;19;20114;-80
2022/04/19 07:08:07;;;;;;;12.77;4.78;;;14.60;58.20;;;;;;7370422;19;20014;-79
2022/04/19 07:10:38;;;;;;;17.92;4.28;;;14.60;58.20;;;;;;7372625;19;20105;-79
2022/04/19 07:13:08;;;;;;;15.95;3.80;;;14.60;57.30;;;;;;7371718;19;20018;-79
2022/04/19 07:15:36;;;;;;;12.50;3.88;;;14.70;57.10;;;;;;7391885;19;20014;-79
2022/04/19 07:18:05;;;;;;;15.18;3.83;;;14.80;56.40;;;;;;7370902;19;20373;-79
2022/04/19 07:28:40;;;;;;;20.10;3.72;;;15.00;56.60;;;;;;7372917;19;21098;-80
2022/04/19 07:31:09;;;;;;;13.93;4.20;;;15.10;56.30;;;;;;7371726;19;20087;-80
2022/04/19 07:33:39;;;;;;;11.43;3.80;;;15.20;56.00;;;;;;7391900;19;20583;-80
2022/04/19 07:36:09;;;;;;;17.27;4.00;;;15.30;55.70;;;;;;7368577;19;20014;-79
2022/04/19 07:38:38;;;;;;;17.27;4.35;;;15.40;55.10;;;;;;7369481;19;20026;-78
2022/04/19 07:41:09;;;;;;;15.10;3.97;;;15.50;54.70;;;;;;7372507;19;20086;-78
2022/04/19 07:43:43;;;;;;;16.55;4.03;;;15.40;54.70;;;;;;7371064;19;20446;-78
2022/04/19 07:46:15;;;;;;;13.77;3.95;;;15.30;54.50;;;;;;7372438;19;20014;-78
2022/04/19 07:48:44;;;;;;;11.85;3.80;;;15.50;54.00;;;;;;7393158;19;20019;-78
2022/04/19 07:51:13;;;;;;;14.90;3.50;;;15.30;53.60;;;;;;7392718;19;20013;-78
2022/04/19 07:53:41;;;;;;;14.00;3.70;;;15.40;53.80;;;;;;7367706;19;20018;-78
2022/04/19 07:56:13;;;;;;;12.40;3.60;;;15.40;53.50;;;;;;7370659;19;20446;-78
2022/04/19 07:58:42;;;;;;;10.65;3.10;;;15.60;53.60;;;;;;7370579;19;20014;-78
2022/04/19 08:01:12;;;;;;;12.98;3.40;;;15.70;53.60;;;;;;7370285;19;20035;-78
2022/04/19 08:03:41;;;;;;;12.18;3.22;;;15.70;52.60;;;;;;7388766;19;20465;-78
2022/04/19 08:06:10;;;;;;;12.00;3.08;;;15.80;52.50;;;;;;7370669;19;20014;-79
2022/04/19 08:08:43;;;;;;;13.70;2.80;;;15.80;52.10;;;;;;7370723;19;20021;-78
2022/04/19 08:11:14;;;;;;;13.48;3.40;;;15.80;51.70;;;;;;7371741;19;20006;-79
2022/04/19 08:13:43;;;;;;;17.83;4.03;;;15.90;52.00;;;;;;7372813;19;20018;-80
2022/04/19 08:16:12;;;;;;;10.23;3.67;;;15.90;52.50;;;;;;7371559;19;20035;-79
2022/04/19 08:18:41;;;;;;;11.23;3.58;;;15.70;52.70;;;;;;7388990;19;20048;-80
2022/04/19 08:21:11;;;;;;;14.93;4.03;;;15.80;52.90;;;;;;7371355;19;20014;-80
2022/04/19 08:23:40;;;;;;;14.65;3.70;;;15.90;52.60;;;;;;7370607;19;20031;-78
2022/04/19 08:26:09;;;;;;;14.80;3.70;;;15.70;52.80;;;;;;7376378;19;20028;-80
2022/04/19 08:28:40;;;;;;;11.25;3.08;;;15.90;52.30;;;;;;7371939;19;20831;-80
2022/04/19 08:31:09;;;;;;;12.32;3.30;;;16.00;51.80;;;;;;7372064;19;20010;-79
2022/04/19 08:33:38;;;;;;;19.63;3.88;;;16.10;51.70;;;;;;7395001;19;20026;-80
2022/04/19 08:36:07;;;;;;;12.57;3.65;;;16.20;51.80;;;;;;7369674;19;20019;-78
2022/04/19 08:38:36;;;;;;;8.10;2.90;;;16.20;51.60;;;;;;7368427;19;20022;-78
2022/04/19 08:41:06;;;;;;;8.68;3.10;;;16.30;51.00;;;;;;7369999;19;20019;-78
2022/04/19 08:43:36;;;;;;;12.43;3.67;;;16.40;50.20;;;;;;7371467;19;20106;-79
2022/04/19 08:46:09;;;;;;;6.45;3.13;;;16.50;49.80;;;;;;7370622;19;20000;-80
2022/04/19 08:48:39;;;;;;;12.85;3.60;;;16.60;49.50;;;;;;7391333;19;20042;-79
2022/04/19 08:51:09;;;;;;;9.85;3.05;;;16.80;49.50;;;;;;7370165;19;20764;-78
2022/04/19 08:59:05;;;;;;;9.90;3.17;;;16.80;47.90;;;;;;7364762;19;20037;-78
2022/04/19 09:01:39;;;;;;;14.55;3.25;;;16.70;47.40;;;;;;7365105;19;20029;-80
2022/04/19 09:04:08;;;;;;;9.65;3.15;;;16.70;47.70;;;;;;7368386;19;20474;-81
2022/04/19 09:07:02;;;;;;;10.98;2.88;;;16.90;47.70;;;;;;7396641;19;20014;-81
2022/04/19 09:09:34;;;;;;;12.63;3.40;;;17.00;47.70;;;;;;7379060;19;20013;-80
2022/04/19 09:12:10;;;;;;;10.95;3.28;;;17.00;47.60;;;;;;7377561;19;20035;-81
2022/04/19 09:14:39;;;;;;;13.90;4.72;;;17.10;47.80;;;;;;7369390;19;20749;-83
2022/04/19 09:17:11;;;;;;;12.80;4.70;;;17.30;48.10;;;;;;7376281;19;20518;-82
2022/04/19 09:19:40;;;;;;;12.18;4.28;;;17.40;48.20;;;;;;7376007;19;20011;-81
2022/04/19 09:22:12;;;;;;;11.35;3.63;;;17.50;47.80;;;;;;7377609;19;20082;-82
2022/04/19 09:24:41;;;;;;;10.07;4.00;;;17.40;47.10;;;;;;7396373;19;20035;-84
2022/04/19 09:27:10;;;;;;;9.23;4.38;;;17.60;47.50;;;;;;7380930;19;20423;-82
2022/04/19 09:29:39;;;;;;;11.50;4.40;;;17.60;47.30;;;;;;7379652;19;20451;-82
2022/04/19 09:32:15;;;;;;;10.35;4.03;;;17.50;47.40;;;;;;7374489;19;20626;-83
2022/04/19 09:34:50;;;;;;;10.02;4.15;;;17.40;47.70;;;;;;7377619;19;20746;-81
2022/04/19 09:37:19;;;;;;;12.40;5.05;;;17.40;47.20;;;;;;7379375;19;20026;-83
2022/04/19 09:39:47;;;;;;;8.90;4.75;;;17.30;47.70;;;;;;7379694;19;20113;-81
2022/04/19 09:42:17;;;;;;;11.60;4.53;;;17.40;47.80;;;;;;7396826;19;20035;-84
2022/04/19 09:44:47;;;;;;;10.38;4.50;;;17.40;47.20;;;;;;7379451;19;20031;-84
2022/04/19 09:47:18;;;;;;;17.35;5.15;;;17.30;47.50;;;;;;7377195;19;20022;-84
2022/04/19 09:49:48;;;;;;;11.88;5.10;;;17.40;47.80;;;;;;7375081;19;21621;-83
2022/04/19 09:52:33;;;;;;;13.75;4.93;;;17.60;47.80;;;;;;7378054;19;20014;-79
2022/04/19 09:55:03;;;;;;;11.27;4.88;;;17.70;47.50;;;;;;7374129;19;20438;-81
2022/04/19 09:57:38;;;;;;;17.27;5.10;;;17.70;48.00;;;;;;7394807;19;20473;-78
2022/04/19 10:00:09;;;;;;;15.00;5.25;;;17.70;48.20;;;;;;7374373;19;20011;-78
2022/04/19 10:10:52;;;;;;;22.35;8.20;;;18.00;48.40;;;;;;7373492;19;20031;-79
2022/04/19 10:13:23;;;;;;;19.60;8.15;;;18.10;49.20;;;;;;7375223;19;20043;-79
2022/04/19 10:15:52;;;;;;;16.77;7.47;;;18.10;49.10;;;;;;7375579;19;20022;-79
2022/04/19 10:18:24;;;;;;;15.57;6.65;;;18.20;48.80;;;;;;7399152;19;20023;-79
2022/04/19 10:20:59;;;;;;;16.75;6.97;;;18.20;49.00;;;;;;7375734;19;20074;-79
2022/04/19 10:23:36;;;;;;;14.05;5.55;;;18.20;49.40;;;;;;7374511;19;20067;-80
2022/04/19 10:26:24;;;;;;;20.70;7.22;;;18.20;49.20;;;;;;7374705;19;20007;-78
2022/04/19 10:28:55;;;;;;;14.05;7.13;;;18.30;49.30;;;;;;7372481;19;20006;-80
2022/04/19 10:31:28;;;;;;;19.52;7.43;;;18.40;49.60;;;;;;7375948;19;20037;-78
2022/04/19 10:34:04;;;;;;;19.15;7.63;;;18.40;49.50;;;;;;7375834;19;20022;-79
2022/04/19 10:36:40;;;;;;;22.48;7.03;;;18.40;49.30;;;;;;7396626;19;20456;-80
2022/04/19 10:39:24;;;;;;;26.73;7.53;;;18.40;49.90;;;;;;7375787;19;20078;-79
2022/04/19 10:41:56;;;;;;;14.45;7.40;;;18.40;50.10;;;;;;7379584;19;20015;-80
2022/04/19 10:44:28;;;;;;;;;;;18.40;50.30;;;;;;7381065;19;20082;-80
2022/04/19 10:47:16;;;;;;;25.52;9.88;;;18.50;50.30;;;;;;7379978;19;19925;-79
2022/04/19 10:49:59;;;;;;;18.15;8.85;;;18.50;49.80;;;;;;7378859;19;20014;-80
2022/04/19 10:52:48;;;;;;;22.30;8.63;;;18.50;50.70;;;;;;7374994;19;20437;-80
2022/04/19 10:55:38;;;;;;;19.75;8.25;;;18.40;49.60;;;;;;7372560;19;20006;-80
2022/04/19 10:58:13;;;;;;;18.40;8.75;;;18.40;50.00;;;;;;7373426;19;20010;-79
2022/04/19 11:00:47;;;;;;;20.38;10.57;;;18.40;50.00;;;;;;7398064;19;20039;-79
2022/04/19 11:03:18;;;;;;;15.13;8.75;;;18.30;49.90;;;;;;7374608;19;20031;-79
2022/04/19 11:05:51;;;;;;;20.30;9.32;;;18.40;50.20;;;;;;7373886;19;20090;-80
2022/04/19 11:08:36;;;;;;;23.40;10.20;;;18.40;50.30;;;;;;7374492;19;20020;-79
2022/04/19 11:11:26;;;;;;;18.35;8.35;;;18.50;49.70;;;;;;7376188;19;20014;-88
2022/04/19 11:14:22;;;;;;;25.02;9.00;;;18.50;50.30;;;;;;7374567;19;20018;-81
2022/04/19 11:16:54;;;;;;;21.38;9.30;;;18.60;50.10;;;;;;7371658;19;20026;-84
2022/04/19 11:19:25;;;;;;;18.52;8.73;;;18.60;50.40;;;;;;7372648;19;20010;-76
2022/04/19 11:22:00;;;;;;;15.80;7.90;;;18.70;51.10;;;;;;7372319;19;20014;-76
2022/04/19 11:24:59;;;;;;;15.77;8.20;;;18.60;50.80;;;;;;7395129;19;20014;-76
2022/04/19 11:28:03;;;;;;;15.00;8.18;;;18.50;50.20;;;;;;7371024;19;20624;-78
2022/04/19 11:30:37;;;;;;;21.95;8.50;;;18.40;49.80;;;;;;7372465;19;20532;-76
2022/04/19 11:33:08;;;;;;;17.63;8.50;;;18.60;50.10;;;;;;7373024;19;20010;-77
2022/04/19 11:35:37;;;;;;;19.55;8.25;;;18.50;49.70;;;;;;7374063;19;20026;-78
2022/04/19 11:38:13;;;;;;;18.83;9.15;;;18.60;49.50;;;;;;7372547;19;20025;-79
2022/04/19 11:49:01;;;;;;;12.15;7.07;;;18.90;49.30;;;;;;7375240;19;20014;-79
2022/04/19 11:51:32;;;;;;;18.42;7.60;;;18.70;50.00;;;;;;7394638;19;20015;-79
2022/04/19 11:54:03;;;;;;;19.65;7.20;;;18.60;49.90;;;;;;7373437;19;20061;-80
2022/04/19 11:56:32;;;;;;;22.60;8.00;;;18.70;50.10;;;;;;7372475;19;20018;-79
2022/04/19 11:59:03;;;;;;;23.08;7.07;;;18.80;50.10;;;;;;7373427;19;20019;-78
2022/04/19 12:01:32;;;;;;;10.27;6.50;;;18.90;50.20;;;;;;7374563;19;20030;-81
2022/04/19 12:04:13;;;;;;;14.95;6.63;;;18.90;49.80;;;;;;7372853;19;20025;-79
2022/04/19 12:06:47;;;;;;;11.35;6.32;;;19.00;49.70;;;;;;7395244;19;20038;-80
2022/04/19 12:09:20;;;;;;;11.82;5.70;;;19.10;49.40;;;;;;7379859;19;20022;-81
2022/04/19 12:11:50;;;;;;;11.93;5.55;;;19.10;49.80;;;;;;7374784;19;20051;-80
2022/04/19 12:14:29;;;;;;;12.45;5.20;;;19.20;50.10;;;;;;7372192;19;20014;-80
2022/04/19 12:17:02;;;;;;;18.15;6.45;;;19.30;50.50;;;;;;7374196;19;20011;-79
2022/04/19 12:19:39;;;;;;;14.07;6.65;;;19.20;49.40;;;;;;7373604;19;20014;-80
2022/04/19 12:22:21;;;;;;;11.55;5.63;;;19.30;49.30;;;;;;7374241;19;20014;-80
2022/04/19 12:24:55;;;;;;;16.38;6.10;;;19.30;50.20;;;;;;7369746;19;20043;-79
2022/04/19 12:27:28;;;;;;;10.25;4.88;;;19.30;49.40;;;;;;7393560;19;20021;-79
2022/04/19 12:30:02;;;;;;;13.63;5.30;;;19.20;49.70;;;;;;7371006;19;20081;-79
2022/04/19 12:32:48;;;;;;;10.10;5.35;;;19.10;50.00;;;;;;7371349;19;20026;-79
2022/04/19 12:35:17;;;;;;;14.02;5.35;;;19.10;49.70;;;;;;7369038;19;20014;-80
2022/04/19 12:37:46;;;;;;;14.82;4.88;;;19.10;49.90;;;;;;7370648;19;20090;-82
2022/04/19 12:40:17;;;;;;;11.70;5.47;;;19.10;50.30;;;;;;7371924;19;20359;-79
2022/04/19 12:42:53;;;;;;;15.15;5.50;;;19.10;49.60;;;;;;7384822;19;20031;-82
2022/04/19 12:45:22;;;;;;;15.35;5.50;;;19.10;49.70;;;;;;7400278;19;20438;-80
2022/04/19 12:47:57;;;;;;;14.82;4.63;;;19.10;49.70;;;;;;7378391;19;20086;-80
2022/04/19 12:50:27;;;;;;;12.63;4.55;;;19.00;49.70;;;;;;7376982;19;20022;-81
2022/04/19 12:52:56;;;;;;;14.10;4.75;;;19.10;49.90;;;;;;7379565;19;20423;-79
2022/04/19 12:55:34;;;;;;;17.48;5.45;;;19.00;49.60;;;;;;7377266;19;20018;-79
2022/04/19 12:58:09;;;;;;;12.05;4.82;;;18.80;49.40;;;;;;7377036;19;20029;-79
2022/04/19 13:00:38;;;;;;;14.25;4.70;;;19.00;49.30;;;;;;7399169;19;20018;-80
2022/04/19 13:03:07;;;;;;;9.25;4.65;;;18.90;49.30;;;;;;7376516;19;20438;-79
2022/04/19 13:13:42;;;;;;;9.52;3.70;;;19.00;49.10;;;;;;7374334;19;20123;-80
2022/04/19 13:16:11;;;;;;;13.50;4.25;;;19.00;48.40;;;;;;7372436;19;20967;-80
2022/04/19 13:18:40;;;;;;;10.88;4.43;;;19.10;48.30;;;;;;7395275;19;20081;-80
2022/04/19 13:21:09;;;;;;;7.78;3.65;;;19.10;49.10;;;;;;7374574;19;20025;-79
2022/04/19 13:23:38;;;;;;;13.05;4.47;;;19.10;48.30;;;;;;7373869;19;20029;-79
2022/04/19 13:26:09;;;;;;;14.45;3.90;;;19.20;47.80;;;;;;7373014;19;20086;-78
2022/04/19 13:28:38;;;;;;;;;;;19.40;47.50;;;;;;7374749;19;20017;-80
2022/04/19 13:31:06;;;;;;;9.82;3.80;;;19.50;47.00;;;;;;7372844;19;19918;-80
2022/04/19 13:33:35;;;;;;;8.50;3.70;;;19.40;47.20;;;;;;7393984;19;20052;-79
2022/04/19 13:36:04;;;;;;;10.07;3.45;;;19.50;46.90;;;;;;7372731;19;20052;-79
2022/04/19 13:38:35;;;;;;;7.65;3.00;;;19.50;47.00;;;;;;7372021;19;20035;-79
2022/04/19 13:41:04;;;;;;;10.50;4.63;;;19.40;47.00;;;;;;7375448;19;20017;-79
2022/04/19 13:43:37;;;;;;;10.55;4.20;;;19.60;47.10;;;;;;7370419;19;20022;-79
2022/04/19 13:46:06;;;;;;;6.55;2.55;;;19.70;46.70;;;;;;7371801;19;20050;-80
2022/04/19 13:48:36;;;;;;;7.70;2.95;;;19.80;46.70;;;;;;7392650;19;20042;-80
2022/04/19 13:51:05;;;;;;;7.63;2.60;;;20.00;45.90;;;;;;7373892;19;20035;-79